Abingdon, Iowa
Current Conditions -  °F | °C
As of 7:35 PM on Thursday 27 Nov 2014 (Local Time) from KFFL Reporting Station
Broken Clouds Broken Clouds  
Wind Chill:   Ceiling: 14000
Heat Index:   Visibility: 10mi
Dew Point:   Wind: 3mph
Humidity: 72%   Direction: 100°E
Pressure: 30.41"   Gusts: NA
Location:  40.9883°N, 92.1215°W
Report Text: KFFL 280135Z AUTO 10003KT 10SM SCT070 BKN140 M14/M18 A3041 RMK AO2
Loading
Personal Weather Stations






























Interactive Weather Map New forecast layout! Learn more

10-Day Weather Forecast

Advertisements
Track Severe Weather on mobile